Time;durP1;ratioP1;P1;durP2;ratioP2;P2;SDS_P1;SDS_P2;PMS_P1;PMS_P2;Temp;Humidity;BMP_temperature;BMP_pressure;BME280_temperature;BME280_humidity;BME280_pressure;Samples;Min_cycle;Max_cycle;Signal;HPM_P1;HPM_P2
2023/04/01 00:01:30;;;;;;;;;1.00;0.00;;;;;;;;5083495;28;8891;-89
2023/04/01 00:03:56;;;;;;;;;0.00;0.00;;;;;;;;5083458;28;9635;-89
2023/04/01 00:06:21;;;;;;;;;1.00;0.00;;;;;;;;5065496;28;8812;-88
2023/04/01 00:08:47;;;;;;;;;0.00;0.00;;;;;;;;5082847;28;8781;-87
2023/04/01 00:11:13;;;;;;;;;1.00;0.00;;;;;;;;5065132;28;8828;-89
2023/04/01 00:13:38;;;;;;;;;0.00;0.00;;;;;;;;5065194;28;9861;-89
2023/04/01 00:16:04;;;;;;;;;1.00;0.00;;;;;;;;5075376;28;8836;-88
2023/04/01 00:18:29;;;;;;;;;2.00;0.00;;;;;;;;5065236;28;8874;-89
2023/04/01 00:20:55;;;;;;;;;0.00;0.00;;;;;;;;5083077;28;8793;-89
2023/04/01 00:23:20;;;;;;;;;1.00;0.00;;;;;;;;5078020;28;9915;-88
2023/04/01 00:25:47;;;;;;;;;0.00;0.00;;;;;;;;5084316;28;8815;-87
2023/04/01 00:28:13;;;;;;;;;1.25;0.00;;;;;;;;5085164;28;8751;-88
2023/04/01 00:30:38;;;;;;;;;0.00;0.00;;;;;;;;5103073;28;10947;-87
2023/04/01 00:33:04;;;;;;;;;1.00;0.00;;;;;;;;5084821;28;9824;-88
2023/04/01 00:35:29;;;;;;;;;0.00;0.00;;;;;;;;5103474;28;8798;-89
2023/04/01 00:37:54;;;;;;;;;0.00;0.00;;;;;;;;5086115;28;9657;-88
2023/04/01 00:40:29;;;;;;;;;2.00;0.00;;;;;;;;5106590;28;8786;-88
2023/04/01 00:42:54;;;;;;;;;0.00;0.00;;;;;;;;5088487;28;10366;-88
2023/04/01 00:45:34;;;;;;;;;1.00;0.00;;;;;;;;5088542;28;11303;-88
2023/04/01 00:48:04;;;;;;;;;0.00;0.00;;;;;;;;5106716;28;8736;-87
2023/04/01 00:50:30;;;;;;;;;1.75;0.00;;;;;;;;5106956;28;10540;-87
2023/04/01 00:52:56;;;;;;;;;0.00;0.00;;;;;;;;5107358;28;11326;-89
2023/04/01 00:55:23;;;;;;;;;1.00;0.00;;;;;;;;5105680;28;10892;-89
2023/04/01 00:57:50;;;;;;;;;3.50;0.25;;;;;;;;5070182;28;8772;-89
2023/04/01 01:00:17;;;;;;;;;0.00;0.00;;;;;;;;5086354;28;11017;-88
2023/04/01 01:02:44;;;;;;;;;0.00;0.00;;;;;;;;5067838;28;10941;-88
2023/04/01 01:05:12;;;;;;;;;2.00;0.00;;;;;;;;5085982;28;11051;-88
2023/04/01 01:07:43;;;;;;;;;1.50;0.00;;;;;;;;5067355;28;10792;-89
2023/04/01 01:10:18;;;;;;;;;2.75;0.00;;;;;;;;5070305;28;11005;-89
2023/04/01 01:12:52;;;;;;;;;0.25;0.00;;;;;;;;5085854;28;11415;-90
2023/04/01 01:15:36;;;;;;;;;1.00;0.00;;;;;;;;5081091;28;10947;-89
2023/04/01 01:18:05;;;;;;;;;1.00;0.00;;;;;;;;5087660;28;11145;-89
2023/04/01 01:20:30;;;;;;;;;0.00;0.00;;;;;;;;5105718;28;10901;-90
2023/04/01 01:23:17;;;;;;;;;1.00;0.00;;;;;;;;5076309;28;10910;-89
2023/04/01 01:25:58;;;;;;;;;0.00;0.00;;;;;;;;5104570;28;8793;-88
2023/04/01 01:28:50;;;;;;;;;0.25;0.00;;;;;;;;5084141;28;10943;-88
2023/04/01 01:31:44;;;;;;;;;0.50;0.00;;;;;;;;5066699;28;11066;-89
2023/04/01 01:34:32;;;;;;;;;0.00;0.00;;;;;;;;5066850;28;11150;-86
2023/04/01 01:37:17;;;;;;;;;0.00;0.00;;;;;;;;5066444;28;11000;-88
2023/04/01 01:40:03;;;;;;;;;1.00;0.00;;;;;;;;5085228;28;11092;-88
2023/04/01 01:42:48;;;;;;;;;0.00;0.00;;;;;;;;5085669;28;11080;-87
2023/04/01 01:45:34;;;;;;;;;0.00;0.00;;;;;;;;5066628;28;11326;-88
2023/04/01 01:48:17;;;;;;;;;0.00;0.00;;;;;;;;5085297;28;10767;-90
2023/04/01 01:50:47;;;;;;;;;0.00;0.00;;;;;;;;5065900;28;12031;-89
2023/04/01 01:53:13;;;;;;;;;2.50;1.00;;;;;;;;5067003;28;10985;-88
2023/04/01 01:55:43;;;;;;;;;0.00;0.00;;;;;;;;5066659;28;11346;-88
2023/04/01 01:58:13;;;;;;;;;0.00;0.00;;;;;;;;5087141;28;8874;-87
2023/04/01 02:00:40;;;;;;;;;1.00;0.00;;;;;;;;5087270;28;11088;-88
2023/04/01 02:03:06;;;;;;;;;1.25;0.00;;;;;;;;5105188;28;11149;-88
2023/04/01 02:05:31;;;;;;;;;0.00;0.00;;;;;;;;5087207;28;11416;-89
2023/04/01 02:08:17;;;;;;;;;0.25;0.25;;;;;;;;5085117;28;8814;-88
2023/04/01 02:10:45;;;;;;;;;0.50;0.50;;;;;;;;5079331;28;8864;-89
2023/04/01 02:13:21;;;;;;;;;0.00;0.00;;;;;;;;5074778;28;10798;-87
2023/04/01 02:15:48;;;;;;;;;0.00;0.00;;;;;;;;5085339;28;11095;-89
2023/04/01 02:18:15;;;;;;;;;0.00;0.00;;;;;;;;5066430;28;11070;-88
2023/04/01 02:20:41;;;;;;;;;0.00;0.00;;;;;;;;5067145;28;10938;-87
2023/04/01 02:23:07;;;;;;;;;0.00;0.00;;;;;;;;5078076;28;11410;-88
2023/04/01 02:25:34;;;;;;;;;0.00;0.00;;;;;;;;5103145;28;10277;-88
2023/04/01 02:28:00;;;;;;;;;1.00;0.00;;;;;;;;5103722;28;12002;-88
2023/04/01 02:30:27;;;;;;;;;0.00;0.00;;;;;;;;5103593;28;11172;-87
2023/04/01 02:32:53;;;;;;;;;0.00;0.00;;;;;;;;5104894;28;8796;-88
2023/04/01 02:35:18;;;;;;;;;2.00;0.00;;;;;;;;5104870;28;11041;-89
2023/04/01 02:37:45;;;;;;;;;0.00;0.00;;;;;;;;5105105;28;8836;-88
2023/04/01 02:40:11;;;;;;;;;1.50;0.00;;;;;;;;5103429;28;8817;-89
2023/04/01 02:42:37;;;;;;;;;1.25;0.25;;;;;;;;5103677;28;10738;-88
2023/04/01 02:45:03;;;;;;;;;0.00;0.00;;;;;;;;5096304;28;10782;-89
2023/04/01 02:47:29;;;;;;;;;0.00;0.00;;;;;;;;5086255;28;8783;-87
2023/04/01 02:49:57;;;;;;;;;1.00;1.00;;;;;;;;5086271;28;11081;-89
2023/04/01 02:52:23;;;;;;;;;1.00;1.00;;;;;;;;5086476;28;8795;-88
2023/04/01 02:54:48;;;;;;;;;1.00;0.00;;;;;;;;5094834;28;11481;-87
2023/04/01 02:57:14;;;;;;;;;0.25;0.25;;;;;;;;5083066;28;8915;-88
2023/04/01 02:59:39;;;;;;;;;1.00;0.00;;;;;;;;5083164;28;8808;-88
2023/04/01 03:02:04;;;;;;;;;0.00;0.00;;;;;;;;5084162;28;8832;-88
2023/04/01 03:04:30;;;;;;;;;0.75;0.00;;;;;;;;5086303;28;9964;-89
2023/04/01 03:06:55;;;;;;;;;0.00;0.00;;;;;;;;5086352;28;8827;-88
2023/04/01 03:09:20;;;;;;;;;0.00;0.00;;;;;;;;5085701;28;8807;-86
2023/04/01 03:11:45;;;;;;;;;0.00;0.00;;;;;;;;5086117;28;8810;-87
2023/04/01 03:14:11;;;;;;;;;0.00;0.00;;;;;;;;5066034;28;9927;-88
2023/04/01 03:16:36;;;;;;;;;1.00;0.00;;;;;;;;5083714;28;8804;-87
2023/04/01 03:19:02;;;;;;;;;2.00;0.00;;;;;;;;5066097;28;8801;-88
2023/04/01 03:21:27;;;;;;;;;0.00;0.00;;;;;;;;5084135;28;8891;-88
2023/04/01 03:23:52;;;;;;;;;0.00;0.00;;;;;;;;5097664;28;8837;-87
2023/04/01 03:26:18;;;;;;;;;0.00;0.00;;;;;;;;5103147;28;8816;-87
2023/04/01 03:28:43;;;;;;;;;1.00;0.00;;;;;;;;5104316;28;8787;-87
2023/04/01 03:31:08;;;;;;;;;0.75;0.00;;;;;;;;5103554;28;8795;-88
2023/04/01 03:33:34;;;;;;;;;0.00;0.00;;;;;;;;5103798;28;8771;-89
2023/04/01 03:35:59;;;;;;;;;1.00;0.00;;;;;;;;5085998;28;8819;-87
2023/04/01 03:38:25;;;;;;;;;0.00;0.00;;;;;;;;5103995;28;8803;-90
2023/04/01 03:40:50;;;;;;;;;0.75;0.00;;;;;;;;5104094;28;8775;-88
2023/04/01 03:43:16;;;;;;;;;1.75;0.00;;;;;;;;5085720;28;10086;-88
2023/04/01 03:45:45;;;;;;;;;0.25;0.00;;;;;;;;5085353;28;8781;-87
2023/04/01 03:48:10;;;;;;;;;0.00;0.00;;;;;;;;5081198;28;10748;-87
2023/04/01 03:50:35;;;;;;;;;0.00;0.00;;;;;;;;5083291;28;10719;-87
2023/04/01 03:53:01;;;;;;;;;2.00;0.50;;;;;;;;5083273;28;8887;-87
2023/04/01 03:55:26;;;;;;;;;1.00;0.00;;;;;;;;5082749;28;8797;-86
2023/04/01 03:57:51;;;;;;;;;1.00;0.00;;;;;;;;5083866;28;8852;-88
2023/04/01 04:00:16;;;;;;;;;0.00;0.00;;;;;;;;5065863;28;8836;-88
2023/04/01 04:02:42;;;;;;;;;0.00;0.00;;;;;;;;5083483;28;9540;-87
2023/04/01 04:05:07;;;;;;;;;2.00;0.00;;;;;;;;5083672;28;8797;-88
2023/04/01 04:07:34;;;;;;;;;0.00;0.00;;;;;;;;5065253;28;8820;-88
2023/04/01 04:09:59;;;;;;;;;0.00;0.00;;;;;;;;5084589;28;8808;-87
2023/04/01 04:12:24;;;;;;;;;0.50;0.50;;;;;;;;5102837;28;11390;-87
2023/04/01 04:14:50;;;;;;;;;4.25;0.00;;;;;;;;5084958;28;8879;-89
2023/04/01 04:17:16;;;;;;;;;0.25;0.00;;;;;;;;5103794;28;8825;-89
2023/04/01 04:19:41;;;;;;;;;1.00;0.00;;;;;;;;5085128;28;8860;-89
2023/04/01 04:22:07;;;;;;;;;1.00;1.00;;;;;;;;5085149;28;9943;-88
2023/04/01 04:24:34;;;;;;;;;0.00;0.00;;;;;;;;5083820;28;8818;-87
2023/04/01 04:26:59;;;;;;;;;0.00;0.00;;;;;;;;5103375;28;8762;-87
2023/04/01 04:29:24;;;;;;;;;1.75;0.00;;;;;;;;5102722;28;11370;-88
2023/04/01 04:31:50;;;;;;;;;0.00;0.00;;;;;;;;5084521;28;10231;-85
2023/04/01 04:34:15;;;;;;;;;0.00;0.00;;;;;;;;5066226;28;8954;-86
2023/04/01 04:36:40;;;;;;;;;0.00;0.00;;;;;;;;5067862;28;8815;-87
2023/04/01 04:39:05;;;;;;;;;0.00;0.00;;;;;;;;5064504;28;8949;-87
2023/04/01 04:41:31;;;;;;;;;0.25;0.00;;;;;;;;5064619;28;9894;-86
2023/04/01 04:43:58;;;;;;;;;1.75;0.00;;;;;;;;5063787;28;9560;-87
2023/04/01 04:46:24;;;;;;;;;0.00;0.00;;;;;;;;5064721;28;8761;-87
2023/04/01 04:48:49;;;;;;;;;1.00;0.00;;;;;;;;5078694;28;11079;-86
2023/04/01 04:51:18;;;;;;;;;0.00;0.00;;;;;;;;5084799;28;9927;-88
2023/04/01 04:53:43;;;;;;;;;0.00;0.00;;;;;;;;5078975;28;8791;-88
2023/04/01 04:56:08;;;;;;;;;0.00;0.00;;;;;;;;5084024;28;11109;-89
2023/04/01 04:58:34;;;;;;;;;1.50;0.00;;;;;;;;5103073;28;8818;-87
2023/04/01 05:01:05;;;;;;;;;1.50;0.00;;;;;;;;5102713;28;8779;-88
2023/04/01 05:03:30;;;;;;;;;0.75;0.00;;;;;;;;5103318;28;8723;-89
2023/04/01 05:05:55;;;;;;;;;0.75;0.00;;;;;;;;5084554;28;10682;-89
2023/04/01 05:08:20;;;;;;;;;0.00;0.00;;;;;;;;5098371;28;8965;-87
2023/04/01 05:10:46;;;;;;;;;0.00;0.00;;;;;;;;5064114;28;9941;-87
2023/04/01 05:13:11;;;;;;;;;0.50;0.00;;;;;;;;5063940;28;8837;-89
2023/04/01 05:15:37;;;;;;;;;1.00;0.00;;;;;;;;5082814;28;8801;-87
2023/04/01 05:18:02;;;;;;;;;3.75;0.00;;;;;;;;5082352;28;8753;-89
2023/04/01 05:20:27;;;;;;;;;0.00;0.00;;;;;;;;5064291;28;9949;-87
2023/04/01 05:22:56;;;;;;;;;0.00;0.00;;;;;;;;5070778;28;8846;-86
2023/04/01 05:25:22;;;;;;;;;0.00;0.00;;;;;;;;5085272;28;8839;-89
2023/04/01 05:27:47;;;;;;;;;0.25;0.00;;;;;;;;5087326;28;10853;-87
2023/04/01 05:30:12;;;;;;;;;0.00;0.00;;;;;;;;5105548;28;8787;-88
2023/04/01 05:32:39;;;;;;;;;0.50;0.00;;;;;;;;5087534;28;8838;-88
2023/04/01 05:35:17;;;;;;;;;1.50;0.00;;;;;;;;5087251;28;8994;-86
2023/04/01 05:37:43;;;;;;;;;0.50;0.00;;;;;;;;5087057;28;10904;-88
2023/04/01 05:40:10;;;;;;;;;0.00;0.00;;;;;;;;5073312;28;11095;-87
2023/04/01 05:42:37;;;;;;;;;0.00;0.00;;;;;;;;5067065;28;8753;-87
2023/04/01 05:45:03;;;;;;;;;0.00;0.00;;;;;;;;5085573;28;10982;-88
2023/04/01 05:47:29;;;;;;;;;0.00;0.00;;;;;;;;5067215;28;10824;-87
2023/04/01 05:49:55;;;;;;;;;0.00;0.00;;;;;;;;5066895;28;11011;-86
2023/04/01 05:52:25;;;;;;;;;0.00;0.00;;;;;;;;5085281;28;11424;-88
2023/04/01 05:54:52;;;;;;;;;0.00;0.00;;;;;;;;5103893;28;11123;-87
2023/04/01 05:57:18;;;;;;;;;1.00;0.00;;;;;;;;5105152;28;10827;-86
2023/04/01 05:59:44;;;;;;;;;0.00;0.00;;;;;;;;5086662;28;11388;-88
2023/04/01 06:02:10;;;;;;;;;2.00;0.00;;;;;;;;5086503;28;10997;-88
2023/04/01 06:04:40;;;;;;;;;1.00;0.00;;;;;;;;5101562;28;9851;-88
2023/04/01 06:07:12;;;;;;;;;0.00;0.00;;;;;;;;5067168;28;10577;-88
2023/04/01 06:09:38;;;;;;;;;1.00;0.00;;;;;;;;5066332;28;11037;-86
2023/04/01 06:12:22;;;;;;;;;0.00;0.00;;;;;;;;5066589;28;10869;-87
2023/04/01 06:14:59;;;;;;;;;0.00;0.00;;;;;;;;5084890;28;8815;-87
2023/04/01 06:17:44;;;;;;;;;0.00;0.00;;;;;;;;5086788;28;10576;-88
2023/04/01 06:20:12;;;;;;;;;0.00;0.00;;;;;;;;5086578;28;11085;-89
2023/04/01 06:22:43;;;;;;;;;0.00;0.00;;;;;;;;5104385;28;10977;-88
2023/04/01 06:25:27;;;;;;;;;2.75;0.00;;;;;;;;5103565;28;10884;-87
2023/04/01 06:28:01;;;;;;;;;0.00;0.00;;;;;;;;5104989;28;10983;-88
2023/04/01 06:30:27;;;;;;;;;1.50;0.00;;;;;;;;5075161;28;11092;-86
2023/04/01 06:32:52;;;;;;;;;1.00;0.00;;;;;;;;5069418;28;11136;-88
2023/04/01 06:35:18;;;;;;;;;1.00;0.00;;;;;;;;5067116;28;8809;-86
2023/04/01 06:37:46;;;;;;;;;2.00;0.00;;;;;;;;5085062;28;8769;-88
2023/04/01 06:40:26;;;;;;;;;0.00;0.00;;;;;;;;5084246;28;8765;-87
2023/04/01 06:42:54;;;;;;;;;0.00;0.00;;;;;;;;5085088;28;10916;-86
2023/04/01 06:45:37;;;;;;;;;1.50;0.50;;;;;;;;5067277;28;11092;-86
2023/04/01 06:48:10;;;;;;;;;1.00;0.00;;;;;;;;5066969;28;10962;-86
2023/04/01 06:50:41;;;;;;;;;1.00;0.00;;;;;;;;5084871;28;11058;-87
2023/04/01 06:53:19;;;;;;;;;0.50;0.00;;;;;;;;5066956;28;10870;-86
2023/04/01 06:55:47;;;;;;;;;0.50;0.00;;;;;;;;5083653;28;10820;-86
2023/04/01 06:58:22;;;;;;;;;1.00;0.00;;;;;;;;5066614;28;10974;-85
2023/04/01 07:00:49;;;;;;;;;0.00;0.00;;;;;;;;5098601;28;10837;-86
2023/04/01 07:03:20;;;;;;;;;0.00;0.00;;;;;;;;5086425;28;10812;-84
2023/04/01 07:05:46;;;;;;;;;0.00;0.00;;;;;;;;5087767;28;10843;-84
2023/04/01 07:08:13;;;;;;;;;0.75;0.00;;;;;;;;5071022;28;10852;-87
2023/04/01 07:10:53;;;;;;;;;0.00;0.00;;;;;;;;5083654;28;10158;-87
2023/04/01 07:13:25;;;;;;;;;0.00;0.00;;;;;;;;5103123;28;10941;-87
2023/04/01 07:15:56;;;;;;;;;0.00;0.00;;;;;;;;5084916;28;10761;-89
2023/04/01 07:18:26;;;;;;;;;0.00;0.00;;;;;;;;5086557;28;10905;-88
2023/04/01 07:20:51;;;;;;;;;0.00;0.00;;;;;;;;5105383;28;11082;-90
2023/04/01 07:23:22;;;;;;;;;0.00;0.00;;;;;;;;5103308;28;11005;-89
2023/04/01 07:25:51;;;;;;;;;0.00;0.00;;;;;;;;5087162;28;9736;-85
2023/04/01 07:28:17;;;;;;;;;0.50;0.00;;;;;;;;5104529;28;10907;-85
2023/04/01 07:31:02;;;;;;;;;0.00;0.00;;;;;;;;5086091;28;11065;-88
2023/04/01 07:33:33;;;;;;;;;0.00;0.00;;;;;;;;5085279;28;10879;-87
2023/04/01 07:36:05;;;;;;;;;1.00;0.00;;;;;;;;5103970;28;10795;-88
2023/04/01 07:38:31;;;;;;;;;0.00;0.00;;;;;;;;5085329;28;10900;-87
2023/04/01 07:40:56;;;;;;;;;0.00;0.00;;;;;;;;5085377;28;11118;-87
2023/04/01 07:43:50;;;;;;;;;0.25;0.00;;;;;;;;5104051;28;8821;-86
2023/04/01 07:46:30;;;;;;;;;0.50;0.00;;;;;;;;5072952;28;9017;-89
2023/04/01 07:49:01;;;;;;;;;0.00;0.00;;;;;;;;5086878;28;10861;-85
2023/04/01 07:51:31;;;;;;;;;0.25;0.00;;;;;;;;5071468;28;10864;-87
2023/04/01 07:54:03;;;;;;;;;1.25;0.00;;;;;;;;5074191;28;10683;-85
2023/04/01 07:56:28;;;;;;;;;0.00;0.00;;;;;;;;5094082;28;10740;-86
2023/04/01 07:58:53;;;;;;;;;0.00;0.00;;;;;;;;5068377;28;10776;-86
2023/04/01 08:01:25;;;;;;;;;0.00;0.00;;;;;;;;5082850;28;9500;-85
2023/04/01 08:04:16;;;;;;;;;0.00;0.00;;;;;;;;5064583;28;8727;-84
2023/04/01 08:06:53;;;;;;;;;1.75;0.00;;;;;;;;5081445;28;10492;-84
2023/04/01 08:09:26;;;;;;;;;0.00;0.00;;;;;;;;5064001;28;10767;-84
2023/04/01 08:11:52;;;;;;;;;0.00;0.00;;;;;;;;5081359;28;11736;-86
2023/04/01 08:14:24;;;;;;;;;0.75;0.75;;;;;;;;5064622;28;10482;-85
2023/04/01 08:17:05;;;;;;;;;0.50;0.25;;;;;;;;5084936;28;8815;-85
2023/04/01 08:19:46;;;;;;;;;0.50;0.00;;;;;;;;5071540;28;10691;-86
2023/04/01 08:22:27;;;;;;;;;0.50;0.50;;;;;;;;5082136;28;10792;-85
2023/04/01 08:24:54;;;;;;;;;0.75;0.00;;;;;;;;5082037;28;10462;-85
2023/04/01 08:27:19;;;;;;;;;1.00;0.00;;;;;;;;5064517;28;10768;-82
2023/04/01 08:29:50;;;;;;;;;0.25;0.25;;;;;;;;5082845;28;10806;-83
2023/04/01 08:32:18;;;;;;;;;2.00;0.00;;;;;;;;5076486;28;10442;-85
2023/04/01 08:34:46;;;;;;;;;0.00;0.00;;;;;;;;5103231;28;10470;-87
2023/04/01 08:37:14;;;;;;;;;0.50;0.00;;;;;;;;5084074;28;10346;-86
2023/04/01 08:39:45;;;;;;;;;0.00;0.00;;;;;;;;5069594;28;10869;-85
2023/04/01 08:42:31;;;;;;;;;1.00;0.00;;;;;;;;5064385;28;11754;-86
2023/04/01 08:45:15;;;;;;;;;1.00;0.00;;;;;;;;5064387;28;10606;-86
2023/04/01 08:47:46;;;;;;;;;1.75;0.00;;;;;;;;5064549;28;10627;-86
2023/04/01 08:50:38;;;;;;;;;0.00;0.00;;;;;;;;5066142;28;10802;-85
2023/04/01 08:53:22;;;;;;;;;1.75;0.00;;;;;;;;5003024;28;10943;-86
2023/04/01 08:55:56;;;;;;;;;0.00;0.00;;;;;;;;5009854;28;10705;-86
2023/04/01 08:58:40;;;;;;;;;1.50;1.00;;;;;;;;4984695;28;10673;-85
2023/04/01 09:01:21;;;;;;;;;0.00;0.00;;;;;;;;5004028;28;10764;-86
2023/04/01 09:04:05;;;;;;;;;1.25;1.00;;;;;;;;4987427;28;10837;-85
2023/04/01 09:06:40;;;;;;;;;3.00;0.00;;;;;;;;4986947;28;10627;-86
2023/04/01 09:09:32;;;;;;;;;1.25;1.00;;;;;;;;5003685;28;10630;-85
2023/04/01 09:11:57;;;;;;;;;0.00;0.00;;;;;;;;5003392;28;10531;-84
2023/04/01 09:14:28;;;;;;;;;1.75;0.25;;;;;;;;5003565;28;10652;-85
2023/04/01 09:17:00;;;;;;;;;1.00;0.00;;;;;;;;4987464;28;8815;-85
2023/04/01 09:19:44;;;;;;;;;0.00;0.00;;;;;;;;4986376;28;10580;-85
2023/04/01 09:22:20;;;;;;;;;0.00;0.00;;;;;;;;5005409;28;10564;-86
2023/04/01 09:25:05;;;;;;;;;0.50;0.50;;;;;;;;5002722;28;10700;-84
2023/04/01 09:27:33;;;;;;;;;0.00;0.00;;;;;;;;4987048;28;10585;-85
2023/04/01 09:30:14;;;;;;;;;2.00;0.00;;;;;;;;5026542;28;10520;-86
2023/04/01 09:32:58;;;;;;;;;1.00;0.00;;;;;;;;5065110;28;10421;-86
2023/04/01 09:35:39;;;;;;;;;1.00;0.00;;;;;;;;5075034;28;10245;-82
2023/04/01 09:38:05;;;;;;;;;0.00;0.00;;;;;;;;5081168;28;10232;-79
2023/04/01 09:40:50;;;;;;;;;1.75;0.00;;;;;;;;5068359;28;10706;-80
2023/04/01 09:43:28;;;;;;;;;0.00;0.00;;;;;;;;5014079;28;8986;-81
2023/04/01 09:45:53;;;;;;;;;1.00;0.00;;;;;;;;5022470;28;10711;-80
2023/04/01 09:48:28;;;;;;;;;0.00;0.00;;;;;;;;4994365;28;10503;-81
2023/04/01 09:51:02;;;;;;;;;0.00;0.00;;;;;;;;4985784;28;8739;-79
2023/04/01 09:53:27;;;;;;;;;2.00;0.00;;;;;;;;4996592;28;10565;-81
2023/04/01 09:56:05;;;;;;;;;1.50;0.00;;;;;;;;5004953;28;10737;-81
2023/04/01 09:58:48;;;;;;;;;0.00;0.00;;;;;;;;5001567;28;8847;-84
2023/04/01 10:01:22;;;;;;;;;0.75;0.00;;;;;;;;5017954;28;10193;-80
2023/04/01 10:03:59;;;;;;;;;0.75;0.00;;;;;;;;5005156;28;10465;-83
2023/04/01 10:06:35;;;;;;;;;0.00;0.00;;;;;;;;5016592;28;10428;-82
2023/04/01 10:09:24;;;;;;;;;0.00;0.00;;;;;;;;4997777;28;10387;-84
2023/04/01 10:12:01;;;;;;;;;0.50;0.00;;;;;;;;5003122;28;10428;-91
2023/04/01 10:14:31;;;;;;;;;1.50;0.00;;;;;;;;5005996;28;10370;-90
2023/04/01 10:17:15;;;;;;;;;1.00;0.00;;;;;;;;5005259;28;10408;-89
2023/04/01 10:19:47;;;;;;;;;0.50;0.00;;;;;;;;5012612;28;10503;-89
2023/04/01 10:22:21;;;;;;;;;0.00;0.00;;;;;;;;5070056;28;10399;-85
2023/04/01 10:24:58;;;;;;;;;1.00;0.00;;;;;;;;5064012;28;10279;-88
2023/04/01 10:27:49;;;;;;;;;1.00;0.00;;;;;;;;5069784;28;10644;-84
2023/04/01 10:30:19;;;;;;;;;0.00;0.00;;;;;;;;5075010;28;11523;-85
2023/04/01 10:32:47;;;;;;;;;0.00;0.00;;;;;;;;5066783;28;11352;-84
2023/04/01 10:35:19;;;;;;;;;1.00;0.00;;;;;;;;5068214;28;10054;-86
2023/04/01 10:37:44;;;;;;;;;1.75;0.50;;;;;;;;5086213;28;10386;-87
2023/04/01 10:40:28;;;;;;;;;0.00;0.00;;;;;;;;5082313;28;10292;-86
2023/04/01 10:42:53;;;;;;;;;4.00;3.00;;;;;;;;5084570;28;8985;-89
2023/04/01 10:45:37;;;;;;;;;0.00;0.00;;;;;;;;5083509;28;10359;-89
2023/04/01 10:48:08;;;;;;;;;1.00;0.00;;;;;;;;5083233;28;9940;-90
2023/04/01 10:50:53;;;;;;;;;0.00;0.00;;;;;;;;5084557;28;10049;-87
2023/04/01 10:53:31;;;;;;;;;0.00;0.00;;;;;;;;5083265;28;10185;-87
2023/04/01 10:56:15;;;;;;;;;0.00;0.00;;;;;;;;5073645;28;10028;-88
2023/04/01 10:58:56;;;;;;;;;0.75;0.00;;;;;;;;5074829;28;10203;-88
2023/04/01 11:01:24;;;;;;;;;0.00;0.00;;;;;;;;5071365;28;10201;-86
2023/04/01 11:04:01;;;;;;;;;1.00;0.00;;;;;;;;5078296;28;10189;-89
2023/04/01 11:06:32;;;;;;;;;0.75;0.00;;;;;;;;5077390;28;10226;-86
2023/04/01 11:09:23;;;;;;;;;0.00;0.00;;;;;;;;5073464;28;10364;-86
2023/04/01 11:12:11;;;;;;;;;0.00;0.00;;;;;;;;5073092;28;11556;-86
2023/04/01 11:14:53;;;;;;;;;0.50;0.50;;;;;;;;5076145;28;9989;-89
2023/04/01 11:17:28;;;;;;;;;0.00;0.00;;;;;;;;5084693;28;10069;-88
2023/04/01 11:20:02;;;;;;;;;0.75;0.00;;;;;;;;5068562;28;10535;-87
2023/04/01 11:22:30;;;;;;;;;0.00;0.00;;;;;;;;5076674;28;10128;-86
2023/04/01 11:25:09;;;;;;;;;0.00;0.00;;;;;;;;5094677;28;9967;-90
2023/04/01 11:27:50;;;;;;;;;0.00;0.00;;;;;;;;5078480;28;10113;-88
2023/04/01 11:30:37;;;;;;;;;0.25;0.00;;;;;;;;5065990;28;11484;-88
2023/04/01 11:33:15;;;;;;;;;3.00;0.00;;;;;;;;5094846;28;10187;-92
2023/04/01 11:36:21;;;;;;;;;1.00;0.00;;;;;;;;5068636;28;10420;-91
2023/04/01 11:39:06;;;;;;;;;1.00;0.00;;;;;;;;5063115;28;10202;-91
2023/04/01 11:41:34;;;;;;;;;0.00;0.00;;;;;;;;5073102;28;10206;-86
2023/04/01 11:44:17;;;;;;;;;0.00;0.00;;;;;;;;5060687;28;10195;-89
2023/04/01 11:46:55;;;;;;;;;0.00;0.00;;;;;;;;5089936;28;10266;-90
2023/04/01 11:49:51;;;;;;;;;0.00;0.00;;;;;;;;5075420;28;9944;-89
2023/04/01 11:52:52;;;;;;;;;0.00;0.00;;;;;;;;5080375;28;10221;-89
2023/04/01 11:55:35;;;;;;;;;0.00;0.00;;;;;;;;5077907;28;10240;-89
2023/04/01 11:58:21;;;;;;;;;0.00;0.00;;;;;;;;5100914;28;10332;-84
2023/04/01 12:01:10;;;;;;;;;1.00;0.00;;;;;;;;5091320;28;10115;-84
2023/04/01 12:04:04;;;;;;;;;0.00;0.00;;;;;;;;5091875;28;10335;-85
2023/04/01 12:06:57;;;;;;;;;0.00;0.00;;;;;;;;5069089;28;10128;-86
2023/04/01 12:09:48;;;;;;;;;0.25;0.00;;;;;;;;5072109;28;10165;-85
2023/04/01 12:12:18;;;;;;;;;0.50;0.00;;;;;;;;5073964;28;10284;-87
2023/04/01 12:15:02;;;;;;;;;0.25;0.00;;;;;;;;5074641;28;10273;-87
2023/04/01 12:17:36;;;;;;;;;1.00;0.00;;;;;;;;5088676;28;10146;-84
2023/04/01 12:20:20;;;;;;;;;0.00;0.00;;;;;;;;5072687;28;10055;-91
2023/04/01 12:22:53;;;;;;;;;0.00;0.00;;;;;;;;5084573;28;10097;-90
2023/04/01 12:25:18;;;;;;;;;0.00;0.00;;;;;;;;5071353;28;10347;-90
2023/04/01 12:27:57;;;;;;;;;0.00;0.00;;;;;;;;5070498;28;9804;-90
2023/04/01 12:30:22;;;;;;;;;0.00;0.00;;;;;;;;5071972;28;8804;-84
2023/04/01 12:32:50;;;;;;;;;0.00;0.00;;;;;;;;5068878;28;10177;-91
2023/04/01 12:35:18;;;;;;;;;0.00;0.00;;;;;;;;5080496;28;10034;-89
2023/04/01 12:37:50;;;;;;;;;0.00;0.00;;;;;;;;5079715;28;10119;-91
2023/04/01 12:40:31;;;;;;;;;0.50;0.00;;;;;;;;5078246;28;10060;-89
2023/04/01 12:43:03;;;;;;;;;0.00;0.00;;;;;;;;5074686;28;10049;-88
2023/04/01 12:45:33;;;;;;;;;0.00;0.00;;;;;;;;5076040;28;10348;-89
2023/04/01 12:48:01;;;;;;;;;0.00;0.00;;;;;;;;5077785;28;9733;-91
2023/04/01 12:50:52;;;;;;;;;0.00;0.00;;;;;;;;5076868;28;9833;-90
2023/04/01 12:53:36;;;;;;;;;0.75;0.00;;;;;;;;4990883;28;9973;-91
2023/04/01 12:56:09;;;;;;;;;0.00;0.00;;;;;;;;4990121;28;10202;-90
2023/04/01 12:59:03;;;;;;;;;0.00;0.00;;;;;;;;5007724;28;10126;-90
2023/04/01 13:01:31;;;;;;;;;0.50;0.00;;;;;;;;5013844;28;9973;-88
2023/04/01 13:03:56;;;;;;;;;0.00;0.00;;;;;;;;5003593;28;10035;-88
2023/04/01 13:06:24;;;;;;;;;0.00;0.00;;;;;;;;5023658;28;11128;-87
2023/04/01 13:08:59;;;;;;;;;1.00;0.00;;;;;;;;5017620;28;8826;-88
2023/04/01 13:11:27;;;;;;;;;0.00;0.00;;;;;;;;4996138;28;9984;-88
2023/04/01 13:13:52;;;;;;;;;0.75;0.00;;;;;;;;5009594;28;10117;-87
2023/04/01 13:16:26;;;;;;;;;0.00;0.00;;;;;;;;5014866;28;9991;-87
2023/04/01 13:19:11;;;;;;;;;0.00;0.00;;;;;;;;5005301;28;8767;-87
2023/04/01 13:21:55;;;;;;;;;0.00;0.00;;;;;;;;5007748;28;9966;-87
2023/04/01 13:24:34;;;;;;;;;0.00;0.00;;;;;;;;5002421;28;10221;-86
2023/04/01 13:27:18;;;;;;;;;1.00;0.00;;;;;;;;5007449;28;10153;-85
2023/04/01 13:30:02;;;;;;;;;0.00;0.00;;;;;;;;5020184;28;9993;-81
2023/04/01 13:32:48;;;;;;;;;1.00;0.00;;;;;;;;5075402;28;9844;-82
2023/04/01 13:35:14;;;;;;;;;0.00;0.00;;;;;;;;5073758;28;9889;-88
2023/04/01 13:37:58;;;;;;;;;1.00;0.00;;;;;;;;5082622;28;10237;-86
2023/04/01 13:40:28;;;;;;;;;0.00;0.00;;;;;;;;5084466;28;8793;-86
2023/04/01 13:42:57;;;;;;;;;0.00;0.00;;;;;;;;5082760;28;10062;-87
2023/04/01 13:45:24;;;;;;;;;0.50;0.00;;;;;;;;5075435;28;10805;-84
2023/04/01 13:48:12;;;;;;;;;0.00;0.00;;;;;;;;5075226;28;9898;-80
2023/04/01 13:51:26;;;;;;;;;;;;;;;;;;;;;
2023/04/01 13:54:15;;;;;;;;;1.00;0.00;;;;;;;;5073494;28;36121;-84
2023/04/01 13:56:59;;;;;;;;;1.00;0.00;;;;;;;;5077803;28;10668;-77
2023/04/01 13:59:42;;;;;;;;;0.00;0.00;;;;;;;;5080024;28;10014;-82
2023/04/01 14:02:43;;;;;;;;;0.00;0.00;;;;;;;;5074981;28;9565;-81
2023/04/01 14:05:26;;;;;;;;;0.00;0.00;;;;;;;;5063130;28;9498;-77
2023/04/01 14:08:19;;;;;;;;;0.00;0.00;;;;;;;;5072644;28;9565;-76
2023/04/01 14:10:52;;;;;;;;;0.33;0.00;;;;;;;;5071463;28;10536;-82
2023/04/01 14:13:35;;;;;;;;;0.33;0.00;;;;;;;;5063998;28;9401;-82
2023/04/01 14:16:27;;;;;;;;;0.00;0.00;;;;;;;;5066453;28;9660;-83
2023/04/01 14:19:11;;;;;;;;;1.00;0.00;;;;;;;;5061886;28;62047;-80
2023/04/01 14:22:01;;;;;;;;;0.00;0.00;;;;;;;;5074326;28;11432;-80
2023/04/01 14:24:40;;;;;;;;;0.00;0.00;;;;;;;;5092673;28;9424;-81
2023/04/01 14:27:30;;;;;;;;;0.00;0.00;;;;;;;;5098213;28;9865;-85
2023/04/01 14:30:17;;;;;;;;;0.00;0.00;;;;;;;;5098316;28;9854;-81
2023/04/01 14:33:03;;;;;;;;;1.00;0.00;;;;;;;;5083946;28;10021;-82
2023/04/01 14:35:47;;;;;;;;;0.75;0.00;;;;;;;;5084283;28;9719;-84
2023/04/01 14:38:31;;;;;;;;;0.00;0.00;;;;;;;;5065340;28;9842;-82
2023/04/01 14:41:23;;;;;;;;;0.00;0.00;;;;;;;;5065021;28;9700;-82
2023/04/01 14:44:12;;;;;;;;;0.25;0.00;;;;;;;;5064876;28;10596;-82
2023/04/01 14:46:56;;;;;;;;;0.00;0.00;;;;;;;;5067479;28;9722;-83
2023/04/01 14:49:36;;;;;;;;;0.50;0.00;;;;;;;;5085257;28;10048;-85
2023/04/01 14:52:17;;;;;;;;;0.00;0.00;;;;;;;;5065290;28;9872;-85
2023/04/01 14:54:54;;;;;;;;;1.00;0.50;;;;;;;;5063960;28;10459;-82
2023/04/01 14:57:32;;;;;;;;;1.00;1.00;;;;;;;;5065315;28;10176;-81
2023/04/01 15:00:06;;;;;;;;;1.00;0.00;;;;;;;;5083392;28;9922;-82
2023/04/01 15:02:35;;;;;;;;;0.75;0.00;;;;;;;;5067947;28;9882;-84
2023/04/01 15:05:41;;;;;;;;;0.00;0.00;;;;;;;;5082811;28;10008;-82
2023/04/01 15:08:28;;;;;;;;;1.00;0.00;;;;;;;;5021572;28;10174;-81
2023/04/01 15:11:16;;;;;;;;;0.00;0.00;;;;;;;;5039724;28;11708;-80
2023/04/01 15:13:50;;;;;;;;;0.00;0.00;;;;;;;;5040534;28;10242;-81
2023/04/01 15:16:58;;;;;;;;;1.25;0.00;;;;;;;;5040275;28;10109;-83
2023/04/01 15:19:54;;;;;;;;;0.00;0.00;;;;;;;;4946031;28;10221;-80
2023/04/01 15:22:27;;;;;;;;;1.50;1.00;;;;;;;;4961663;28;10173;-80
2023/04/01 15:24:58;;;;;;;;;2.00;0.00;;;;;;;;4959190;28;10232;-80
2023/04/01 15:27:46;;;;;;;;;1.00;1.00;;;;;;;;4958634;28;10400;-83